createdAt,value
2022-09-28T00:01:47.752Z,4.20
2022-09-28T00:04:14.314Z,3.95
2022-09-28T00:06:40.820Z,4.70
2022-09-28T00:09:07.329Z,4.53
2022-09-28T00:11:36.322Z,4.80
2022-09-28T00:14:03.771Z,4.55
2022-09-28T00:16:32.214Z,4.93
2022-09-28T00:18:58.830Z,5.68
2022-09-28T00:21:26.991Z,5.53
2022-09-28T00:24:12.447Z,5.05
2022-09-28T00:26:51.741Z,4.82
2022-09-28T00:29:23.599Z,4.60
2022-09-28T00:31:54.730Z,4.45
2022-09-28T00:34:21.293Z,5.03
2022-09-28T00:36:48.284Z,4.18
2022-09-28T00:39:15.679Z,4.88
2022-09-28T00:41:42.764Z,5.20
2022-09-28T00:44:24.728Z,4.72
2022-09-28T00:46:53.702Z,4.75
2022-09-28T00:49:21.948Z,5.30
2022-09-28T00:51:48.815Z,5.47
2022-09-28T00:54:16.462Z,5.63
2022-09-28T00:56:43.918Z,5.40
2022-09-28T00:59:10.925Z,5.57
2022-09-28T01:01:37.952Z,5.00
2022-09-28T01:04:05.758Z,5.18
2022-09-28T01:06:33.373Z,5.47
2022-09-28T01:09:02.509Z,4.82
2022-09-28T01:11:31.280Z,5.38
2022-09-28T01:13:59.448Z,5.28
2022-09-28T01:16:44.670Z,5.32
2022-09-28T01:19:32.639Z,5.05
2022-09-28T01:22:06.152Z,5.55
2022-09-28T01:24:43.354Z,5.28
2022-09-28T01:27:28.481Z,6.13
2022-09-28T01:30:01.683Z,5.90
2022-09-28T01:32:47.453Z,6.03
2022-09-28T01:35:17.481Z,5.65
2022-09-28T01:37:43.936Z,6.20
2022-09-28T01:40:11.980Z,5.85
2022-09-28T01:42:39.939Z,6.15
2022-09-28T01:45:09.518Z,5.82
2022-09-28T01:47:39.348Z,6.03
2022-09-28T01:50:10.104Z,6.07
2022-09-28T01:52:41.548Z,6.03
2022-09-28T01:55:16.894Z,5.80
2022-09-28T01:57:46.000Z,6.10
2022-09-28T02:00:14.141Z,6.43
2022-09-28T02:02:48.382Z,6.05
2022-09-28T02:05:27.281Z,5.82
2022-09-28T02:08:00.140Z,6.18
2022-09-28T02:10:29.324Z,5.78
2022-09-28T02:13:25.125Z,6.13
2022-09-28T02:15:53.332Z,6.25
2022-09-28T02:18:22.466Z,6.78
2022-09-28T02:21:04.752Z,6.40
2022-09-28T02:23:33.735Z,6.18
2022-09-28T02:26:08.361Z,5.88
2022-09-28T02:28:34.780Z,6.65
2022-09-28T02:31:01.179Z,6.43
2022-09-28T02:33:34.052Z,6.85
2022-09-28T02:36:00.817Z,6.28
2022-09-28T02:38:28.609Z,6.28
2022-09-28T02:41:02.537Z,6.03
2022-09-28T02:43:38.546Z,5.80
2022-09-28T02:46:10.794Z,6.60
2022-09-28T02:49:04.978Z,6.13
2022-09-28T02:51:46.545Z,6.03
2022-09-28T02:54:34.190Z,6.22
2022-09-28T02:57:08.920Z,6.30
2022-09-28T02:59:54.596Z,6.68
2022-09-28T03:02:27.715Z,6.60
2022-09-28T03:04:54.142Z,6.45
2022-09-28T03:07:32.704Z,7.57
2022-09-28T03:10:05.749Z,7.20
2022-09-28T03:12:33.333Z,7.30
2022-09-28T03:15:06.600Z,7.75
2022-09-28T03:17:32.914Z,7.03
2022-09-28T03:20:01.582Z,8.00
2022-09-28T03:22:27.939Z,7.57
2022-09-28T03:24:54.435Z,6.95
2022-09-28T03:27:20.970Z,6.97
2022-09-28T03:29:47.319Z,7.65
2022-09-28T03:32:13.701Z,6.45
2022-09-28T03:34:40.062Z,6.70
2022-09-28T03:37:06.404Z,7.55
2022-09-28T03:39:32.732Z,6.68
2022-09-28T03:42:02.456Z,6.63
2022-09-28T03:44:30.325Z,6.70
2022-09-28T03:46:56.735Z,7.47
2022-09-28T03:49:23.075Z,6.85
2022-09-28T03:51:49.473Z,7.13
2022-09-28T03:54:15.888Z,7.15
2022-09-28T03:56:42.343Z,7.22
2022-09-28T03:59:09.006Z,7.13
2022-09-28T04:01:35.912Z,7.43
2022-09-28T04:04:02.376Z,6.50
2022-09-28T04:06:28.879Z,7.35
2022-09-28T04:08:55.337Z,6.03
2022-09-28T04:11:21.758Z,7.38
2022-09-28T04:13:50.163Z,6.93
2022-09-28T04:16:17.953Z,7.22
2022-09-28T04:18:44.551Z,8.70
2022-09-28T04:21:12.182Z,6.68
2022-09-28T04:23:39.308Z,6.93
2022-09-28T04:26:06.671Z,6.95
2022-09-28T04:28:51.441Z,6.75
2022-09-28T04:31:22.708Z,7.18
2022-09-28T04:33:49.144Z,6.53
2022-09-28T04:36:15.595Z,6.38
2022-09-28T04:38:58.828Z,6.88
2022-09-28T04:41:25.316Z,7.18
2022-09-28T04:43:51.835Z,7.57
2022-09-28T04:46:18.666Z,7.60
2022-09-28T04:48:47.845Z,8.07
2022-09-28T04:51:16.829Z,8.00
2022-09-28T04:53:43.259Z,7.22
2022-09-28T04:56:13.729Z,7.65
2022-09-28T04:58:40.548Z,8.32
2022-09-28T05:01:08.522Z,8.30
2022-09-28T05:03:35.421Z,7.03
2022-09-28T05:06:02.062Z,7.90
2022-09-28T05:08:28.535Z,8.45
2022-09-28T05:11:00.026Z,9.20
2022-09-28T05:13:28.100Z,8.30
2022-09-28T05:15:58.845Z,8.65
2022-09-28T05:18:27.357Z,7.63
2022-09-28T05:20:53.745Z,7.15
2022-09-28T05:23:20.162Z,7.30
2022-09-28T05:25:46.594Z,6.65
2022-09-28T05:28:12.974Z,7.60
2022-09-28T05:30:46.750Z,7.13
2022-09-28T05:33:13.101Z,7.55
2022-09-28T05:35:39.445Z,7.05
2022-09-28T05:38:05.834Z,7.25
2022-09-28T05:40:33.653Z,8.25
2022-09-28T05:43:01.610Z,7.18
2022-09-28T05:45:28.973Z,8.43
2022-09-28T05:47:55.398Z,7.93
2022-09-28T05:50:21.875Z,8.20
2022-09-28T05:52:56.838Z,7.63
2022-09-28T05:55:23.330Z,9.98
2022-09-28T05:57:49.703Z,8.00
2022-09-28T06:00:16.122Z,8.32
2022-09-28T06:02:42.571Z,7.60
2022-09-28T06:05:09.230Z,7.60
2022-09-28T06:07:35.610Z,7.43
2022-09-28T06:10:02.121Z,7.47
2022-09-28T06:12:28.533Z,6.90
2022-09-28T06:14:55.418Z,7.00
2022-09-28T06:17:21.769Z,7.47
2022-09-28T06:19:48.104Z,6.10
2022-09-28T06:22:14.449Z,4.28
2022-09-28T06:24:41.291Z,5.28
2022-09-28T06:27:07.677Z,5.13
2022-09-28T06:29:34.218Z,4.57
2022-09-28T06:32:01.320Z,4.43
2022-09-28T06:34:27.729Z,4.68
2022-09-28T06:36:54.077Z,4.20
2022-09-28T06:39:20.463Z,4.35
2022-09-28T06:41:47.201Z,4.60
2022-09-28T06:44:13.698Z,4.00
2022-09-28T06:46:40.214Z,4.13
2022-09-28T06:49:09.688Z,3.75
2022-09-28T06:51:36.772Z,3.85
2022-09-28T06:54:03.454Z,3.30
2022-09-28T06:56:32.950Z,3.70
2022-09-28T06:58:59.620Z,3.60
2022-09-28T07:01:26.122Z,3.83
2022-09-28T07:03:55.640Z,3.67
2022-09-28T07:06:24.231Z,3.50
2022-09-28T07:09:01.525Z,3.40
2022-09-28T07:11:44.436Z,3.80
2022-09-28T07:14:25.517Z,4.00
2022-09-28T07:17:12.455Z,3.70
2022-09-28T07:19:40.335Z,3.15
2022-09-28T07:22:06.680Z,3.53
2022-09-28T07:24:33.255Z,3.60
2022-09-28T07:26:59.688Z,3.42
2022-09-28T07:29:26.203Z,3.40
2022-09-28T07:31:53.488Z,3.53
2022-09-28T07:34:24.065Z,3.33
2022-09-28T07:36:51.914Z,3.13
2022-09-28T07:39:18.551Z,3.63
2022-09-28T07:41:45.093Z,3.22
2022-09-28T07:44:11.995Z,3.60
2022-09-28T07:46:38.456Z,3.13
2022-09-28T07:49:08.488Z,3.50
2022-09-28T07:51:37.978Z,3.58
2022-09-28T07:54:06.869Z,3.97
2022-09-28T07:56:35.235Z,3.58
2022-09-28T07:59:02.698Z,2.83
2022-09-28T08:01:30.719Z,3.67
2022-09-28T08:03:57.201Z,3.08
2022-09-28T08:06:23.626Z,2.97
2022-09-28T08:08:50.416Z,3.10
2022-09-28T08:11:20.122Z,3.08
2022-09-28T08:13:47.649Z,3.20
2022-09-28T08:16:14.116Z,3.50
2022-09-28T08:18:41.016Z,2.88
2022-09-28T08:21:26.155Z,3.50
2022-09-28T08:23:53.042Z,2.05
2022-09-28T08:26:19.558Z,3.10
2022-09-28T08:28:47.728Z,3.22
2022-09-28T08:31:14.306Z,3.30
2022-09-28T08:33:41.951Z,3.25
2022-09-28T08:36:11.753Z,3.53
2022-09-28T08:38:38.141Z,3.25
2022-09-28T08:41:23.326Z,2.95
2022-09-28T08:44:00.222Z,3.40
2022-09-28T08:46:29.335Z,3.45
2022-09-28T08:49:23.834Z,3.60
2022-09-28T08:51:53.137Z,2.63
2022-09-28T08:54:45.695Z,3.15
2022-09-28T08:57:18.868Z,3.20
2022-09-28T08:59:56.070Z,3.20
2022-09-28T09:02:28.101Z,2.78
2022-09-28T09:04:57.009Z,2.55
2022-09-28T09:07:41.998Z,3.10
2022-09-28T09:10:30.145Z,2.97
2022-09-28T09:13:03.153Z,2.75
2022-09-28T09:15:39.601Z,2.70
2022-09-28T09:18:09.295Z,2.88
2022-09-28T09:20:43.866Z,1.80
2022-09-28T09:23:18.028Z,2.67
2022-09-28T09:25:48.456Z,2.97
2022-09-28T09:28:33.455Z,3.08
2022-09-28T09:31:05.539Z,2.80
2022-09-28T09:33:53.542Z,2.70
2022-09-28T09:36:47.289Z,2.90
2022-09-28T09:39:22.154Z,2.40
2022-09-28T09:41:57.864Z,3.00
2022-09-28T09:44:24.549Z,2.85
2022-09-28T09:46:54.163Z,2.45
2022-09-28T09:49:30.514Z,2.50
2022-09-28T09:52:06.447Z,2.10
2022-09-28T09:57:01.681Z,2.55
2022-09-28T09:59:33.774Z,2.40
2022-09-28T10:02:03.842Z,3.00
2022-09-28T10:04:34.876Z,2.45
2022-09-28T10:07:03.500Z,3.10
2022-09-28T10:09:41.378Z,2.15
2022-09-28T10:12:09.559Z,2.88
2022-09-28T10:14:36.142Z,2.80
2022-09-28T10:17:03.895Z,2.40
2022-09-28T10:19:34.784Z,2.33
2022-09-28T10:22:03.605Z,2.38
2022-09-28T10:24:39.371Z,2.30
2022-09-28T10:27:11.444Z,1.95
2022-09-28T10:29:44.065Z,2.20
2022-09-28T10:32:21.184Z,1.83
2022-09-28T10:34:50.330Z,2.25
2022-09-28T10:37:18.203Z,2.10
2022-09-28T10:39:46.861Z,2.00
2022-09-28T10:42:18.106Z,2.20
2022-09-28T10:44:53.414Z,1.88
2022-09-28T10:47:20.940Z,2.17
2022-09-28T10:49:49.297Z,2.13
2022-09-28T10:52:34.230Z,2.30
2022-09-28T10:55:01.126Z,2.08
2022-09-28T10:57:35.248Z,2.22
2022-09-28T11:00:02.588Z,2.33
2022-09-28T11:02:36.214Z,2.20
2022-09-28T11:05:04.481Z,2.10
2022-09-28T11:07:32.263Z,2.10
2022-09-28T11:09:59.992Z,1.95
2022-09-28T11:12:40.021Z,2.33
2022-09-28T11:15:07.629Z,1.92
2022-09-28T11:17:38.662Z,2.00
2022-09-28T11:20:26.100Z,2.20
2022-09-28T11:22:55.688Z,2.35
2022-09-28T11:25:24.182Z,2.40
2022-09-28T11:27:50.491Z,2.20
2022-09-28T11:30:24.386Z,2.17
2022-09-28T11:32:53.142Z,2.40
2022-09-28T11:35:34.113Z,2.30
2022-09-28T11:38:12.699Z,2.47
2022-09-28T11:41:02.578Z,2.38
2022-09-28T11:43:35.071Z,2.40
2022-09-28T11:46:04.831Z,2.30
2022-09-28T11:48:40.730Z,2.30
2022-09-28T11:51:12.864Z,2.50
2022-09-28T11:53:42.395Z,2.80
2022-09-28T11:56:18.877Z,3.00
2022-09-28T11:58:50.306Z,3.00
2022-09-28T12:01:24.225Z,3.00
2022-09-28T12:03:53.067Z,2.72
2022-09-28T12:06:22.268Z,2.97
2022-09-28T12:08:54.324Z,3.10
2022-09-28T12:11:25.257Z,3.20
2022-09-28T12:13:54.111Z,2.70
2022-09-28T12:16:53.027Z,2.80
2022-09-28T12:19:19.333Z,2.85
2022-09-28T12:21:48.419Z,3.08
2022-09-28T12:24:17.605Z,2.90
2022-09-28T12:26:43.944Z,3.55
2022-09-28T12:29:13.806Z,3.00
2022-09-28T12:32:03.147Z,3.00
2022-09-28T12:34:29.566Z,3.20
2022-09-28T12:37:12.106Z,3.05
2022-09-28T12:39:57.845Z,3.00
2022-09-28T12:42:53.726Z,3.35
2022-09-28T12:45:43.045Z,3.30
2022-09-28T12:48:38.200Z,3.20
2022-09-28T12:51:16.837Z,3.40
2022-09-28T12:53:55.509Z,2.70
2022-09-28T12:56:21.926Z,3.28
2022-09-28T12:59:06.850Z,3.38
2022-09-28T13:01:49.904Z,3.40
2022-09-28T13:04:28.212Z,3.88
2022-09-28T13:06:57.697Z,3.50
2022-09-28T13:09:27.392Z,4.68
2022-09-28T13:11:59.439Z,3.70
2022-09-28T13:14:34.956Z,3.42
2022-09-28T13:17:22.583Z,3.05
2022-09-28T13:20:18.307Z,3.05
2022-09-28T13:22:44.656Z,3.05
2022-09-28T13:25:16.946Z,2.90
2022-09-28T13:27:48.193Z,2.78
2022-09-28T13:30:16.046Z,3.05
2022-09-28T13:32:43.664Z,2.80
2022-09-28T13:35:19.519Z,3.20
2022-09-28T13:37:46.056Z,3.13
2022-09-28T13:40:12.451Z,3.30
2022-09-28T13:42:45.376Z,3.35
2022-09-28T13:45:21.275Z,3.38
2022-09-28T13:47:47.661Z,3.50
2022-09-28T13:50:14.007Z,4.00
2022-09-28T13:52:50.662Z,4.40
2022-09-28T13:55:17.130Z,4.15
2022-09-28T13:57:49.614Z,3.95
2022-09-28T14:00:18.926Z,4.00
2022-09-28T14:02:48.003Z,4.15
2022-09-28T14:05:23.407Z,4.18
2022-09-28T14:08:05.016Z,4.63
2022-09-28T14:10:51.925Z,3.80
2022-09-28T14:13:37.193Z,3.13
2022-09-28T14:16:23.142Z,3.47
2022-09-28T14:18:56.027Z,2.80
2022-09-28T14:21:36.738Z,2.60
2022-09-28T14:24:12.957Z,2.03
2022-09-28T14:29:15.864Z,3.30
2022-09-28T14:31:43.685Z,2.88
2022-09-28T14:34:23.958Z,4.00
2022-09-28T14:37:08.971Z,4.28
2022-09-28T14:39:55.042Z,3.90
2022-09-28T14:42:25.364Z,4.68
2022-09-28T14:45:06.815Z,4.18
2022-09-28T14:47:38.166Z,4.28
2022-09-28T14:50:23.410Z,4.10
2022-09-28T14:52:53.565Z,3.70
2022-09-28T14:55:27.673Z,4.30
2022-09-28T14:57:56.777Z,4.55
2022-09-28T15:00:26.393Z,3.72
2022-09-28T15:02:54.257Z,4.32
2022-09-28T15:05:26.877Z,3.20
2022-09-28T15:07:54.386Z,4.70
2022-09-28T15:10:27.920Z,5.30
2022-09-28T15:12:56.066Z,5.28
2022-09-28T15:15:28.438Z,6.57
2022-09-28T15:18:02.291Z,6.38
2022-09-28T15:20:30.438Z,4.43
2022-09-28T15:22:58.446Z,4.53
2022-09-28T15:25:28.853Z,2.85
2022-09-28T15:27:56.452Z,3.25
2022-09-28T15:30:25.363Z,3.80
2022-09-28T15:32:54.618Z,4.03
2022-09-28T15:35:22.060Z,4.47
2022-09-28T15:37:52.146Z,5.88
2022-09-28T15:40:31.672Z,4.18
2022-09-28T15:42:59.449Z,4.75
2022-09-28T15:45:36.676Z,4.47
2022-09-28T15:48:18.555Z,3.88
2022-09-28T15:50:57.045Z,3.80
2022-09-28T15:53:23.424Z,4.28
2022-09-28T15:55:50.096Z,3.50
2022-09-28T15:58:20.438Z,3.55
2022-09-28T16:00:48.148Z,3.40
2022-09-28T16:03:17.287Z,3.85
2022-09-28T16:05:46.210Z,3.30
2022-09-28T16:08:26.318Z,3.72
2022-09-28T16:10:58.874Z,3.25
2022-09-28T16:13:25.873Z,3.30
2022-09-28T16:15:59.831Z,3.22
2022-09-28T16:18:27.132Z,3.58
2022-09-28T16:20:54.443Z,3.17
2022-09-28T16:23:24.196Z,3.08
2022-09-28T16:26:05.162Z,3.30
2022-09-28T16:28:35.027Z,3.00
2022-09-28T16:31:05.943Z,3.05
2022-09-28T16:33:46.809Z,3.35
2022-09-28T16:36:14.594Z,3.30
2022-09-28T16:38:43.994Z,3.33
2022-09-28T16:41:11.158Z,3.78
2022-09-28T16:43:37.552Z,4.65
2022-09-28T16:46:09.492Z,6.45
2022-09-28T16:48:39.432Z,5.03
2022-09-28T16:51:05.818Z,4.95
2022-09-28T16:53:50.672Z,5.05
2022-09-28T16:56:17.035Z,4.70
2022-09-28T16:58:44.201Z,6.30
2022-09-28T17:01:11.609Z,6.28
2022-09-28T17:03:38.088Z,5.07
2022-09-28T17:06:06.248Z,5.60
2022-09-28T17:08:32.976Z,4.97
2022-09-28T17:11:22.739Z,4.78
2022-09-28T17:13:48.853Z,4.22
2022-09-28T17:16:32.214Z,5.20
2022-09-28T17:19:16.167Z,5.10
2022-09-28T17:21:42.517Z,4.45
2022-09-28T17:24:08.862Z,4.40
2022-09-28T17:26:36.079Z,4.60
2022-09-28T17:29:02.611Z,3.60
2022-09-28T17:31:30.013Z,4.50
2022-09-28T17:33:56.632Z,5.05
2022-09-28T17:36:23.036Z,5.07
2022-09-28T17:38:51.686Z,4.57
2022-09-28T17:41:20.704Z,5.30
2022-09-28T17:43:47.457Z,5.60
2022-09-28T17:46:27.926Z,5.05
2022-09-28T17:48:54.836Z,4.95
2022-09-28T17:51:22.529Z,5.53
2022-09-28T17:53:49.170Z,5.43
2022-09-28T17:56:15.546Z,5.38
2022-09-28T17:58:41.894Z,5.38
2022-09-28T18:01:09.263Z,5.43
2022-09-28T18:03:35.660Z,4.82
2022-09-28T18:06:06.636Z,5.40
2022-09-28T18:08:33.622Z,4.82
2022-09-28T18:11:01.666Z,5.38
2022-09-28T18:13:28.160Z,5.43
2022-09-28T18:15:55.416Z,5.25
2022-09-28T18:18:22.836Z,5.25
2022-09-28T18:20:49.377Z,4.90
2022-09-28T18:23:15.754Z,6.40
2022-09-28T18:25:43.454Z,5.25
2022-09-28T18:28:10.541Z,5.72
2022-09-28T18:30:40.985Z,5.25
2022-09-28T18:33:08.116Z,5.63
2022-09-28T18:35:34.917Z,5.45
2022-09-28T18:38:01.386Z,5.22
2022-09-28T18:40:27.886Z,5.47
2022-09-28T18:42:55.748Z,5.75
2022-09-28T18:45:22.122Z,5.82
2022-09-28T18:47:48.534Z,5.20
2022-09-28T18:50:19.186Z,5.13
2022-09-28T18:52:47.244Z,5.75
2022-09-28T18:55:13.762Z,5.43
2022-09-28T18:57:41.511Z,4.85
2022-09-28T19:00:09.815Z,5.63
2022-09-28T19:02:36.594Z,4.55
2022-09-28T19:05:03.600Z,5.00
2022-09-28T19:07:31.374Z,5.00
2022-09-28T19:09:57.789Z,4.57
2022-09-28T19:12:24.226Z,5.47
2022-09-28T19:14:50.599Z,5.57
2022-09-28T19:17:20.521Z,4.85
2022-09-28T19:19:46.956Z,5.28
2022-09-28T19:22:13.381Z,4.88
2022-09-28T19:24:40.001Z,5.13
2022-09-28T19:27:06.376Z,5.20
2022-09-28T19:29:32.812Z,4.70
2022-09-28T19:31:59.343Z,5.30
2022-09-28T19:34:30.038Z,5.45
2022-09-28T19:36:57.082Z,5.00
2022-09-28T19:39:23.509Z,5.28
2022-09-28T19:41:52.248Z,4.40
2022-09-28T19:44:26.774Z,3.97
2022-09-28T19:46:55.377Z,4.10
2022-09-28T19:49:22.649Z,4.53
2022-09-28T19:54:39.652Z,4.90
2022-09-28T19:57:08.049Z,4.63
2022-09-28T19:59:35.638Z,4.28
2022-09-28T20:02:02.129Z,4.15
2022-09-28T20:04:28.910Z,4.45
2022-09-28T20:06:55.306Z,4.47
2022-09-28T20:09:21.761Z,4.85
2022-09-28T20:11:48.601Z,4.28
2022-09-28T20:14:18.650Z,4.00
2022-09-28T20:16:46.285Z,4.45
2022-09-28T20:19:13.010Z,4.82
2022-09-28T20:21:40.399Z,4.70
2022-09-28T20:24:06.887Z,4.65
2022-09-28T20:26:37.820Z,4.63
2022-09-28T20:29:07.602Z,4.75
2022-09-28T20:31:38.234Z,4.60
2022-09-28T20:34:05.389Z,4.78
2022-09-28T20:36:32.188Z,5.78
2022-09-28T20:39:01.888Z,5.22
2022-09-28T20:41:29.831Z,5.28
2022-09-28T20:43:59.628Z,5.07
2022-09-28T20:46:29.359Z,5.50
2022-09-28T20:48:58.018Z,4.72
2022-09-28T20:51:24.448Z,4.95
2022-09-28T20:53:55.054Z,5.05
2022-09-28T20:56:34.535Z,5.78
2022-09-28T20:59:01.658Z,5.30
2022-09-28T21:01:30.013Z,5.38
2022-09-28T21:03:57.777Z,5.65
2022-09-28T21:06:30.694Z,6.18
2022-09-28T21:08:57.701Z,6.70
2022-09-28T21:11:24.792Z,6.65
2022-09-28T21:13:58.123Z,6.25
2022-09-28T21:16:24.918Z,6.88
2022-09-28T21:18:51.614Z,6.82
2022-09-28T21:21:19.057Z,5.97
2022-09-28T21:23:45.488Z,6.38
2022-09-28T21:26:13.325Z,6.18
2022-09-28T21:28:39.888Z,6.32
2022-09-28T21:31:07.804Z,6.03
2022-09-28T21:33:34.942Z,6.35
2022-09-28T21:36:05.356Z,6.50
2022-09-28T21:38:33.098Z,6.47
2022-09-28T21:40:59.991Z,6.40
2022-09-28T21:43:27.361Z,6.38
2022-09-28T21:45:54.550Z,7.85
2022-09-28T21:48:22.000Z,7.30
2022-09-28T21:50:58.591Z,7.65
2022-09-28T21:53:26.017Z,7.20
2022-09-28T21:55:53.138Z,7.57
2022-09-28T21:58:25.834Z,7.22
2022-09-28T22:00:58.256Z,8.55
2022-09-28T22:03:25.756Z,7.72
2022-09-28T22:05:52.462Z,7.93
2022-09-28T22:08:19.625Z,7.22
2022-09-28T22:10:46.254Z,6.93
2022-09-28T22:13:12.698Z,6.78
2022-09-28T22:15:39.402Z,7.88
2022-09-28T22:18:05.783Z,6.97
2022-09-28T22:20:32.106Z,6.53
2022-09-28T22:22:58.474Z,7.43
2022-09-28T22:25:24.846Z,7.07
2022-09-28T22:27:52.564Z,7.07
2022-09-28T22:30:19.005Z,7.10
2022-09-28T22:32:45.381Z,6.43
2022-09-28T22:35:11.989Z,6.75
2022-09-28T22:37:38.588Z,5.72
2022-09-28T22:40:05.295Z,6.70
2022-09-28T22:42:32.757Z,7.07
2022-09-28T22:44:59.093Z,7.32
2022-09-28T22:47:25.439Z,6.93
2022-09-28T22:49:51.869Z,7.20
2022-09-28T22:52:18.185Z,7.10
2022-09-28T22:54:45.575Z,7.20
2022-09-28T22:57:12.326Z,7.15
2022-09-28T22:59:38.699Z,6.95
2022-09-28T23:02:05.164Z,6.57
2022-09-28T23:04:31.952Z,6.43
2022-09-28T23:06:58.358Z,6.85
2022-09-28T23:09:24.677Z,6.65
2022-09-28T23:11:51.178Z,7.07
2022-09-28T23:14:17.521Z,6.93
2022-09-28T23:16:43.886Z,6.95
2022-09-28T23:19:10.289Z,7.47
2022-09-28T23:21:37.177Z,7.95
2022-09-28T23:24:03.609Z,7.53
2022-09-28T23:26:31.455Z,7.72
2022-09-28T23:29:00.843Z,6.35
2022-09-28T23:31:31.111Z,6.70
2022-09-28T23:33:58.891Z,5.72
2022-09-28T23:36:29.199Z,6.15
2022-09-28T23:38:55.735Z,6.00
2022-09-28T23:41:22.172Z,5.90
2022-09-28T23:43:48.533Z,5.82
2022-09-28T23:46:20.275Z,6.28
2022-09-28T23:48:47.185Z,6.28
2022-09-28T23:51:13.618Z,5.68
2022-09-28T23:53:39.943Z,5.43
2022-09-28T23:56:06.348Z,5.22
2022-09-28T23:58:32.696Z,5.13
